createdAt,value
2023-03-05T00:01:42.596Z,99960.03
2023-03-05T00:04:15.807Z,99973.00
2023-03-05T00:06:44.591Z,99977.44
2023-03-05T00:09:13.100Z,99966.94
2023-03-05T00:11:41.841Z,99968.63
2023-03-05T00:14:11.684Z,99964.19
2023-03-05T00:16:42.822Z,99959.31
2023-03-05T00:19:13.102Z,99949.78
2023-03-05T00:21:43.458Z,99966.09
2023-03-05T00:24:16.042Z,99955.97
2023-03-05T00:26:46.188Z,99962.75
2023-03-05T00:29:18.686Z,99952.41
2023-03-05T00:31:47.868Z,99955.03
2023-03-05T00:34:19.796Z,99948.94
2023-03-05T00:36:50.107Z,99933.44
2023-03-05T00:39:20.293Z,99948.13
2023-03-05T00:41:49.521Z,99941.94
2023-03-05T00:44:18.584Z,99927.41
2023-03-05T00:46:47.174Z,99917.47
2023-03-05T00:49:15.826Z,99931.56
2023-03-05T00:51:45.846Z,99924.66
2023-03-05T00:54:14.481Z,99910.75
2023-03-05T00:56:43.020Z,99896.94
2023-03-05T00:59:11.647Z,99902.88
2023-03-05T01:01:40.247Z,99899.53
2023-03-05T01:04:08.784Z,99906.69
2023-03-05T01:06:39.390Z,99902.50
2023-03-05T01:09:09.299Z,99897.69
2023-03-05T01:11:37.962Z,99905.69
2023-03-05T01:14:06.490Z,99895.66
2023-03-05T01:16:35.055Z,99897.09
2023-03-05T01:19:03.802Z,99898.78
2023-03-05T01:21:32.367Z,99890.94
2023-03-05T01:24:00.917Z,99894.59
2023-03-05T01:26:30.910Z,99886.88
2023-03-05T01:28:59.565Z,99879.97
2023-03-05T01:31:28.174Z,99870.16
2023-03-05T01:33:57.719Z,99882.31
2023-03-05T01:36:26.310Z,99876.13
2023-03-05T01:38:54.790Z,99871.59
2023-03-05T01:41:23.505Z,99861.38
2023-03-05T01:43:54.845Z,99864.47
2023-03-05T01:46:31.120Z,99865.44
2023-03-05T01:49:07.065Z,99863.63
2023-03-05T01:51:42.726Z,99859.69
2023-03-05T01:54:13.462Z,99864.72
2023-03-05T01:56:43.152Z,99852.78
2023-03-05T01:59:15.535Z,99853.03
2023-03-05T02:01:47.632Z,99853.75
2023-03-05T02:04:19.360Z,99857.41
2023-03-05T02:06:50.328Z,99853.03
2023-03-05T02:09:18.898Z,99850.50
2023-03-05T02:11:47.493Z,99844.91
2023-03-05T02:14:17.608Z,99841.28
2023-03-05T02:16:46.013Z,99854.13
2023-03-05T02:19:14.961Z,99844.34
2023-03-05T02:21:47.364Z,99854.81
2023-03-05T02:24:17.180Z,99850.53
2023-03-05T02:26:46.700Z,99856.06
2023-03-05T02:29:19.982Z,99851.16
2023-03-05T02:31:48.545Z,99850.44
2023-03-05T02:34:17.260Z,99847.09
2023-03-05T02:36:47.224Z,99848.16
2023-03-05T02:39:15.760Z,99849.81
2023-03-05T02:41:44.304Z,99847.31
2023-03-05T02:44:12.950Z,99841.47
2023-03-05T02:46:41.540Z,99844.19
2023-03-05T02:49:10.197Z,99833.44
2023-03-05T02:51:38.817Z,99817.91
2023-03-05T02:54:09.250Z,99832.34
2023-03-05T02:56:38.557Z,99832.34
2023-03-05T02:59:07.239Z,99832.34
2023-03-05T03:01:35.851Z,99828.88
2023-03-05T03:04:04.469Z,99838.81
2023-03-05T03:06:33.014Z,99828.38
2023-03-05T03:09:01.504Z,99830.25
2023-03-05T03:11:31.508Z,99822.97
2023-03-05T03:14:01.764Z,99827.56
2023-03-05T03:16:30.473Z,99810.56
2023-03-05T03:18:59.035Z,99817.88
2023-03-05T03:21:28.356Z,99805.34
2023-03-05T03:23:57.132Z,99802.72
2023-03-05T03:26:25.820Z,99804.53
2023-03-05T03:28:56.352Z,99799.59
2023-03-05T03:31:25.160Z,99795.53
2023-03-05T03:33:54.261Z,99799.81
2023-03-05T03:36:22.971Z,99794.00
2023-03-05T03:38:51.666Z,99792.31
2023-03-05T03:41:20.823Z,99786.66
2023-03-05T03:43:49.505Z,99765.38
2023-03-05T03:46:19.667Z,99759.75
2023-03-05T03:48:51.823Z,99771.34
2023-03-05T03:51:20.515Z,99768.00
2023-03-05T03:53:50.236Z,99755.88
2023-03-05T03:56:18.921Z,99755.16
2023-03-05T03:58:47.807Z,99758.72
2023-03-05T04:01:16.838Z,99747.19
2023-03-05T04:03:46.789Z,99748.28
2023-03-05T04:06:15.740Z,99752.03
2023-03-05T04:08:44.259Z,99748.47
2023-03-05T04:11:12.907Z,99741.38
2023-03-05T04:13:41.440Z,99741.97
2023-03-05T04:16:10.253Z,99736.75
2023-03-05T04:18:38.761Z,99732.38
2023-03-05T04:21:08.911Z,99726.22
2023-03-05T04:23:38.106Z,99725.50
2023-03-05T04:26:07.122Z,99718.81
2023-03-05T04:28:35.701Z,99708.59
2023-03-05T04:31:04.627Z,99717.47
2023-03-05T04:33:34.096Z,99703.88
2023-03-05T04:36:02.872Z,99699.81
2023-03-05T04:38:32.911Z,99709.13
2023-03-05T04:41:01.437Z,99704.22
2023-03-05T04:43:30.065Z,99691.38
2023-03-05T04:45:58.757Z,99694.22
2023-03-05T04:48:27.557Z,99689.94
2023-03-05T04:50:58.113Z,99695.88
2023-03-05T04:53:27.836Z,99688.78
2023-03-05T04:55:58.353Z,99679.38
2023-03-05T04:58:26.903Z,99690.44
2023-03-05T05:00:55.543Z,99684.50
2023-03-05T05:03:24.001Z,99679.06
2023-03-05T05:05:56.880Z,99677.41
2023-03-05T05:08:25.568Z,99679.16
2023-03-05T05:11:00.261Z,99674.78
2023-03-05T05:13:29.900Z,99676.47
2023-03-05T05:15:58.624Z,99679.78
2023-03-05T05:18:28.740Z,99678.13
2023-03-05T05:20:57.410Z,99679.78
2023-03-05T05:23:26.041Z,99684.28
2023-03-05T05:26:00.455Z,99679.06
2023-03-05T05:28:29.522Z,99675.50
2023-03-05T05:30:58.109Z,99673.84
2023-03-05T05:33:27.357Z,99681.69
2023-03-05T05:35:55.968Z,99673.00
2023-03-05T05:38:26.880Z,99667.47
2023-03-05T05:40:55.390Z,99660.72
2023-03-05T05:43:25.314Z,99668.94
2023-03-05T05:45:54.060Z,99663.09
2023-03-05T05:48:22.640Z,99668.31
2023-03-05T05:50:51.158Z,99657.47
2023-03-05T05:53:19.648Z,99666.66
2023-03-05T05:55:48.132Z,99665.00
2023-03-05T05:58:16.786Z,99658.75
2023-03-05T06:00:46.932Z,99652.47
2023-03-05T06:03:15.761Z,99658.53
2023-03-05T06:05:44.432Z,99650.91
2023-03-05T06:08:12.918Z,99656.75
2023-03-05T06:11:06.389Z,99651.44
2023-03-05T06:13:35.540Z,99662.47
2023-03-05T06:16:07.294Z,99661.75
2023-03-05T06:18:36.659Z,99651.44
2023-03-05T06:21:07.705Z,99650.28
2023-03-05T06:23:36.743Z,99646.72
2023-03-05T06:26:10.450Z,99642.22
2023-03-05T06:28:38.931Z,99644.94
2023-03-05T06:31:09.996Z,99639.31
2023-03-05T06:33:39.137Z,99647.03
2023-03-05T06:36:08.804Z,99648.91
2023-03-05T06:38:37.927Z,99642.16
2023-03-05T06:41:12.815Z,99629.31
2023-03-05T06:43:43.617Z,99633.59
2023-03-05T06:46:14.806Z,99630.97
2023-03-05T06:48:44.284Z,99631.06
2023-03-05T06:51:17.260Z,99631.19
2023-03-05T06:53:49.246Z,99634.75
2023-03-05T06:56:20.934Z,99630.69
2023-03-05T06:58:51.165Z,99643.31
2023-03-05T07:01:20.463Z,99639.75
2023-03-05T07:03:51.824Z,99639.13
2023-03-05T07:06:21.605Z,99631.41
2023-03-05T07:08:51.809Z,99644.03
2023-03-05T07:11:23.231Z,99641.41
2023-03-05T07:13:54.173Z,99638.81
2023-03-05T07:16:26.232Z,99622.72
2023-03-05T07:18:58.968Z,99625.13
2023-03-05T07:21:30.417Z,99625.03
2023-03-05T07:24:01.127Z,99632.81
2023-03-05T07:26:33.791Z,99637.22
2023-03-05T07:29:02.604Z,99640.22
2023-03-05T07:31:32.428Z,99636.88
2023-03-05T07:34:02.944Z,99633.97
2023-03-05T07:36:32.536Z,99621.22
2023-03-05T07:39:01.644Z,99635.81
2023-03-05T07:41:34.013Z,99632.16
2023-03-05T07:44:03.660Z,99610.69
2023-03-05T07:46:40.493Z,99622.66
2023-03-05T07:49:09.517Z,99606.28
2023-03-05T07:51:38.699Z,99615.00
2023-03-05T07:54:11.542Z,99627.72
2023-03-05T07:56:41.586Z,99601.34
2023-03-05T07:59:14.003Z,99616.13
2023-03-05T08:01:43.164Z,99626.34
2023-03-05T08:04:12.146Z,99616.63
2023-03-05T08:06:42.265Z,99612.13
2023-03-05T08:09:11.733Z,99601.41
2023-03-05T08:11:42.988Z,99613.44
2023-03-05T08:14:13.425Z,99606.94
2023-03-05T08:16:42.636Z,99616.22
2023-03-05T08:19:12.915Z,99606.50
2023-03-05T08:21:41.664Z,99598.91
2023-03-05T08:24:10.897Z,99605.78
2023-03-05T08:26:42.136Z,99614.56
2023-03-05T08:29:11.564Z,99610.38
2023-03-05T08:31:42.919Z,99636.84
2023-03-05T08:34:11.399Z,99626.50
2023-03-05T08:36:40.133Z,99639.28
2023-03-05T08:39:08.826Z,99616.88
2023-03-05T08:41:37.697Z,99628.16
2023-03-05T08:44:07.690Z,99633.97
2023-03-05T08:46:36.395Z,99626.97
2023-03-05T08:49:07.140Z,99628.19
2023-03-05T08:51:36.754Z,99636.44
2023-03-05T08:54:07.622Z,99618.16
2023-03-05T08:56:36.680Z,99631.09
2023-03-05T08:59:08.940Z,99613.75
2023-03-05T09:01:37.491Z,99624.50
2023-03-05T09:04:06.113Z,99609.31
2023-03-05T09:06:39.536Z,99617.00
2023-03-05T09:09:08.974Z,99622.22
2023-03-05T09:11:38.149Z,99627.78
2023-03-05T09:14:09.416Z,99608.78
2023-03-05T09:16:41.173Z,99626.63
2023-03-05T09:19:10.857Z,99624.97
2023-03-05T09:21:39.333Z,99617.72
2023-03-05T09:24:08.247Z,99620.25
2023-03-05T09:26:36.769Z,99618.06
2023-03-05T09:29:07.738Z,99652.34
2023-03-05T09:31:39.453Z,99621.88
2023-03-05T09:34:09.550Z,99619.63
2023-03-05T09:36:38.093Z,99630.50
2023-03-05T09:39:08.452Z,99620.50
2023-03-05T09:41:52.915Z,99630.59
2023-03-05T09:44:33.205Z,99624.75
2023-03-05T09:47:17.049Z,99617.72
2023-03-05T09:49:52.344Z,99620.22
2023-03-05T09:52:25.035Z,99620.41
2023-03-05T09:54:56.936Z,99619.25
2023-03-05T09:57:34.467Z,99614.50
2023-03-05T10:00:09.431Z,99616.41
2023-03-05T10:02:48.891Z,99611.56
2023-03-05T10:05:22.274Z,99600.06
2023-03-05T10:07:57.074Z,99601.19
2023-03-05T10:10:29.371Z,99606.78
2023-03-05T10:13:01.622Z,99593.50
2023-03-05T10:15:44.569Z,99595.44
2023-03-05T10:18:37.478Z,99597.59
2023-03-05T10:21:10.953Z,99583.13
2023-03-05T10:24:00.562Z,99599.28
2023-03-05T10:26:48.953Z,99580.03
2023-03-05T10:29:40.047Z,99573.63
2023-03-05T10:32:19.994Z,99576.41
2023-03-05T10:35:21.513Z,99568.69
2023-03-05T10:38:23.042Z,99574.69
2023-03-05T10:40:55.863Z,99570.50
2023-03-05T10:43:35.070Z,99549.69
2023-03-05T10:46:05.620Z,99546.72
2023-03-05T10:48:41.795Z,99545.91
2023-03-05T10:51:18.616Z,99544.09
2023-03-05T10:53:57.350Z,99541.84
2023-03-05T10:56:32.000Z,99536.00
2023-03-05T10:59:00.509Z,99539.25
2023-03-05T11:01:32.053Z,99537.78
2023-03-05T11:04:03.869Z,99543.00
2023-03-05T11:06:36.192Z,99531.59
2023-03-05T11:09:20.367Z,99536.72
2023-03-05T11:12:07.473Z,99520.44
2023-03-05T11:14:40.322Z,99539.69
2023-03-05T11:17:31.936Z,99517.81
2023-03-05T11:20:36.116Z,99517.47
2023-03-05T11:23:08.108Z,99518.75
2023-03-05T11:25:55.072Z,99531.25
2023-03-05T11:28:33.433Z,99520.88
2023-03-05T11:31:21.424Z,99518.41
2023-03-05T11:33:59.313Z,99516.38
2023-03-05T11:36:30.982Z,99516.97
2023-03-05T11:39:10.998Z,99496.53
2023-03-05T11:41:43.630Z,99516.84
2023-03-05T11:44:17.380Z,99500.22
2023-03-05T11:46:48.858Z,99498.06
2023-03-05T11:49:22.836Z,99500.94
2023-03-05T11:52:07.144Z,99487.41
2023-03-05T11:54:43.870Z,99494.28
2023-03-05T11:57:15.823Z,99482.94
2023-03-05T11:59:46.263Z,99474.84
2023-03-05T12:02:22.040Z,99469.03
2023-03-05T12:04:51.358Z,99457.47
2023-03-05T12:07:23.803Z,99451.13
2023-03-05T12:09:54.006Z,99459.00
2023-03-05T12:12:38.815Z,99434.13
2023-03-05T12:15:30.117Z,99456.03
2023-03-05T12:18:07.055Z,99442.47
2023-03-05T12:20:44.304Z,99449.00
2023-03-05T12:23:17.404Z,99461.75
2023-03-05T12:25:53.111Z,99456.44
2023-03-05T12:29:01.731Z,99452.06
2023-03-05T12:31:39.533Z,99445.19
2023-03-05T12:34:39.314Z,99443.88
2023-03-05T12:37:12.913Z,99443.38
2023-03-05T12:39:52.949Z,99444.22
2023-03-05T12:42:47.540Z,99432.19
2023-03-05T12:45:43.391Z,99430.75
2023-03-05T12:48:47.598Z,99425.97
2023-03-05T12:51:30.359Z,99440.03
2023-03-05T12:53:59.149Z,99432.41
2023-03-05T12:56:33.577Z,99430.88
2023-03-05T12:59:05.493Z,99442.66
2023-03-05T13:01:42.200Z,99436.47
2023-03-05T13:04:21.586Z,99430.28
2023-03-05T13:07:00.669Z,99438.97
2023-03-05T13:09:34.078Z,99443.13
2023-03-05T13:12:04.635Z,99437.69
2023-03-05T13:14:41.988Z,99433.31
2023-03-05T13:17:44.605Z,99443.31
2023-03-05T13:20:37.996Z,99446.25
2023-03-05T13:23:18.451Z,99441.22
2023-03-05T13:25:47.745Z,99445.41
2023-03-05T13:28:19.204Z,99448.59
2023-03-05T13:30:53.446Z,99451.69
2023-03-05T13:33:26.512Z,99444.88
2023-03-05T13:35:57.005Z,99444.31
2023-03-05T13:38:31.165Z,99436.22
2023-03-05T13:41:19.641Z,99444.75
2023-03-05T13:43:51.110Z,99436.31
2023-03-05T13:46:31.776Z,99424.34
2023-03-05T13:49:21.603Z,99438.56
2023-03-05T13:51:57.409Z,99418.59
2023-03-05T13:54:29.586Z,99414.91
2023-03-05T13:57:07.360Z,99415.53
2023-03-05T13:59:39.749Z,99429.06
2023-03-05T14:02:20.034Z,99434.41
2023-03-05T14:04:52.675Z,99442.84
2023-03-05T14:07:32.034Z,99452.22
2023-03-05T14:10:06.099Z,99428.81
2023-03-05T14:12:41.539Z,99419.53
2023-03-05T14:15:25.302Z,99423.81
2023-03-05T14:17:56.306Z,99440.22
2023-03-05T14:20:29.196Z,99436.94
2023-03-05T14:23:02.671Z,99436.66
2023-03-05T14:25:40.101Z,99408.50
2023-03-05T14:28:27.601Z,99435.38
2023-03-05T14:31:01.254Z,99419.16
2023-03-05T14:33:34.771Z,99405.88
2023-03-05T14:36:06.667Z,99421.78
2023-03-05T14:38:41.416Z,99406.81
2023-03-05T14:41:40.056Z,99414.63
2023-03-05T14:44:15.353Z,99422.44
2023-03-05T14:46:45.337Z,99407.72
2023-03-05T14:49:14.888Z,99410.84
2023-03-05T14:51:47.121Z,99415.09
2023-03-05T14:54:26.296Z,99413.44
2023-03-05T14:56:55.417Z,99420.59
2023-03-05T14:59:24.695Z,99406.19
2023-03-05T15:01:55.011Z,99420.09
2023-03-05T15:04:24.225Z,99410.34
2023-03-05T15:06:53.959Z,99410.13
2023-03-05T15:09:24.494Z,99405.94
2023-03-05T15:11:53.277Z,99419.63
2023-03-05T15:14:22.012Z,99402.50
2023-03-05T15:16:50.719Z,99408.66
2023-03-05T15:19:20.022Z,99407.69
2023-03-05T15:21:49.158Z,99413.66
2023-03-05T15:24:20.042Z,99396.53
2023-03-05T15:26:50.793Z,99396.03
2023-03-05T15:29:19.491Z,99411.50
2023-03-05T15:31:48.730Z,99401.28
2023-03-05T15:34:18.553Z,99390.44
2023-03-05T15:36:47.358Z,99393.22
2023-03-05T15:39:16.114Z,99404.84
2023-03-05T15:41:45.096Z,99414.34
2023-03-05T15:44:15.214Z,99407.13
2023-03-05T15:46:43.910Z,99407.13
2023-03-05T15:49:13.014Z,99407.97
2023-03-05T15:51:41.910Z,99404.66
2023-03-05T15:54:11.513Z,99401.31
2023-03-05T15:56:42.159Z,99398.69
2023-03-05T15:59:11.670Z,99407.50
2023-03-05T16:01:45.283Z,99400.03
2023-03-05T16:04:14.486Z,99403.34
2023-03-05T16:06:43.816Z,99403.81
2023-03-05T16:09:13.014Z,99400.84
2023-03-05T16:11:48.515Z,99397.28
2023-03-05T16:14:21.122Z,99401.81
2023-03-05T16:16:52.674Z,99388.75
2023-03-05T16:19:23.439Z,99405.84
2023-03-05T16:21:55.115Z,99403.94
2023-03-05T16:24:23.760Z,99405.59
2023-03-05T16:26:52.466Z,99402.97
2023-03-05T16:29:21.409Z,99397.63
2023-03-05T16:31:51.783Z,99391.09
2023-03-05T16:34:20.489Z,99392.50
2023-03-05T16:36:52.843Z,99388.00
2023-03-05T16:39:22.487Z,99398.81
2023-03-05T16:41:53.176Z,99397.03
2023-03-05T16:44:22.210Z,99384.19
2023-03-05T16:46:54.171Z,99389.19
2023-03-05T16:49:23.578Z,99392.78
2023-03-05T16:51:54.085Z,99392.78
2023-03-05T16:54:23.456Z,99397.03
2023-03-05T16:56:51.938Z,99391.81
2023-03-05T16:59:20.454Z,99394.44
2023-03-05T17:01:51.258Z,99390.16
2023-03-05T17:04:22.419Z,99399.78
2023-03-05T17:06:50.889Z,99403.22
2023-03-05T17:09:24.364Z,99408.47
2023-03-05T17:11:53.422Z,99401.53
2023-03-05T17:14:22.100Z,99390.84
2023-03-05T17:16:50.685Z,99413.34
2023-03-05T17:19:20.851Z,99419.97
2023-03-05T17:21:51.494Z,99425.47
2023-03-05T17:24:22.261Z,99426.75
2023-03-05T17:26:51.641Z,99427.47
2023-03-05T17:29:21.701Z,99426.50
2023-03-05T17:31:53.388Z,99425.69
2023-03-05T17:34:35.593Z,99424.13
2023-03-05T17:37:05.950Z,99422.47
2023-03-05T17:39:35.356Z,99426.75
2023-03-05T17:42:03.849Z,99428.66
2023-03-05T17:44:32.466Z,99421.44
2023-03-05T17:47:01.240Z,99413.59
2023-03-05T17:49:31.236Z,99416.31
2023-03-05T17:51:59.878Z,99426.66
2023-03-05T17:54:28.716Z,99425.81
2023-03-05T17:56:57.912Z,99430.22
2023-03-05T17:59:27.377Z,99425.09
2023-03-05T18:01:55.938Z,99418.44
2023-03-05T18:04:24.633Z,99426.44
2023-03-05T18:06:54.797Z,99429.16
2023-03-05T18:09:31.353Z,99421.41
2023-03-05T18:12:00.372Z,99420.34
2023-03-05T18:14:30.506Z,99410.47
2023-03-05T18:17:00.564Z,99411.78
2023-03-05T18:19:29.272Z,99420.09
2023-03-05T18:21:59.737Z,99402.28
2023-03-05T18:24:28.261Z,99404.31
2023-03-05T18:26:56.727Z,99402.53
2023-03-05T18:29:25.700Z,99399.34
2023-03-05T18:31:54.349Z,99401.34
2023-03-05T18:34:25.215Z,99389.72
2023-03-05T18:36:55.746Z,99397.78
2023-03-05T18:39:25.994Z,99394.69
2023-03-05T18:41:54.625Z,99401.72
2023-03-05T18:44:23.714Z,99396.13
2023-03-05T18:46:52.317Z,99391.38
2023-03-05T18:49:20.807Z,99393.88
2023-03-05T18:51:49.433Z,99394.59
2023-03-05T18:54:17.918Z,99404.09
2023-03-05T18:56:48.097Z,99399.69
2023-03-05T18:59:16.682Z,99398.75
2023-03-05T19:01:45.767Z,99386.16
2023-03-05T19:04:14.521Z,99387.09
2023-03-05T19:06:43.684Z,99391.13
2023-03-05T19:09:29.155Z,99387.09
2023-03-05T19:11:59.176Z,99385.66
2023-03-05T19:14:30.762Z,99394.53
2023-03-05T19:17:00.582Z,99399.91
2023-03-05T19:19:29.098Z,99386.38
2023-03-05T19:21:59.984Z,99391.69
2023-03-05T19:24:30.512Z,99389.94
2023-03-05T19:27:01.702Z,99387.78
2023-03-05T19:29:33.194Z,99392.88
2023-03-05T19:32:02.083Z,99390.16
2023-03-05T19:34:30.612Z,99392.06
2023-03-05T19:36:59.220Z,99381.59
2023-03-05T19:39:29.473Z,99379.81
2023-03-05T19:41:59.539Z,99366.50
2023-03-05T19:44:29.258Z,99380.41
2023-03-05T19:47:02.032Z,99374.09
2023-03-05T19:49:33.392Z,99371.00
2023-03-05T19:52:02.209Z,99377.81
2023-03-05T19:54:31.075Z,99354.06
2023-03-05T19:57:01.217Z,99371.63
2023-03-05T19:59:29.784Z,99370.44
2023-03-05T20:02:02.087Z,99372.56
2023-03-05T20:04:30.902Z,99377.38
2023-03-05T20:06:59.772Z,99378.31
2023-03-05T20:09:28.669Z,99372.50
2023-03-05T20:11:58.815Z,99370.94
2023-03-05T20:14:33.821Z,99366.88
2023-03-05T20:17:06.811Z,99363.69
2023-03-05T20:19:38.257Z,99377.44
2023-03-05T20:22:08.409Z,99372.69
2023-03-05T20:24:37.837Z,99370.09
2023-03-05T20:27:07.288Z,99369.13
2023-03-05T20:29:37.749Z,99364.88
2023-03-05T20:32:06.918Z,99367.47
2023-03-05T20:34:36.360Z,99366.75
2023-03-05T20:37:05.858Z,99365.09
2023-03-05T20:39:34.602Z,99354.88
2023-03-05T20:42:03.762Z,99361.75
2023-03-05T20:44:32.238Z,99364.09
2023-03-05T20:47:24.282Z,99358.97
2023-03-05T20:49:56.272Z,99363.16
2023-03-05T20:52:24.936Z,99359.38
2023-03-05T20:54:53.534Z,99354.25
2023-03-05T20:57:22.202Z,99360.59
2023-03-05T20:59:50.920Z,99363.19
2023-03-05T21:02:20.951Z,99361.53
2023-03-05T21:04:50.113Z,99360.81
2023-03-05T21:07:18.493Z,99366.53
2023-03-05T21:09:47.082Z,99355.47
2023-03-05T21:12:15.499Z,99351.09
2023-03-05T21:14:43.955Z,99351.19
2023-03-05T21:17:12.385Z,99353.22
2023-03-05T21:19:42.264Z,99352.28
2023-03-05T21:22:11.304Z,99353.44
2023-03-05T21:24:54.078Z,99351.78
2023-03-05T21:27:22.856Z,99351.88
2023-03-05T21:29:52.233Z,99345.72
2023-03-05T21:32:20.907Z,99352.28
2023-03-05T21:34:53.752Z,99355.59
2023-03-05T21:37:22.949Z,99343.22
2023-03-05T21:39:52.048Z,99348.00
2023-03-05T21:42:20.839Z,99340.19
2023-03-05T21:44:49.444Z,99346.09
2023-03-05T21:47:20.095Z,99338.59
2023-03-05T21:49:49.602Z,99339.00
2023-03-05T21:52:19.712Z,99344.69
2023-03-05T21:54:48.401Z,99329.84
2023-03-05T21:57:17.333Z,99324.63
2023-03-05T21:59:46.123Z,99327.59
2023-03-05T22:02:16.613Z,99332.81
2023-03-05T22:04:45.827Z,99320.47
2023-03-05T22:07:14.508Z,99317.16
2023-03-05T22:09:44.564Z,99322.16
2023-03-05T22:12:20.477Z,99324.13
2023-03-05T22:14:49.075Z,99320.47
2023-03-05T22:17:17.468Z,99319.41
2023-03-05T22:19:46.146Z,99320.97
2023-03-05T22:22:18.108Z,99318.13
2023-03-05T22:24:48.352Z,99314.34
2023-03-05T22:27:16.906Z,99304.97
2023-03-05T22:29:45.617Z,99316.97
2023-03-05T22:32:14.143Z,99305.81
2023-03-05T22:34:42.702Z,99293.69
2023-03-05T22:37:11.494Z,99304.59
2023-03-05T22:39:40.075Z,99306.50
2023-03-05T22:42:10.219Z,99296.38
2023-03-05T22:44:38.686Z,99302.31
2023-03-05T22:47:08.813Z,99302.44
2023-03-05T22:49:37.912Z,99296.06
2023-03-05T22:52:07.983Z,99296.06
2023-03-05T22:54:37.138Z,99290.13
2023-03-05T22:57:07.042Z,99285.00
2023-03-05T22:59:37.075Z,99291.56
2023-03-05T23:02:06.500Z,99288.34
2023-03-05T23:04:49.265Z,99294.16
2023-03-05T23:07:23.121Z,99289.75
2023-03-05T23:10:02.132Z,99287.88
2023-03-05T23:12:33.024Z,99292.28
2023-03-05T23:15:04.089Z,99287.06
2023-03-05T23:17:32.629Z,99281.22
2023-03-05T23:20:01.163Z,99288.94
2023-03-05T23:22:29.714Z,99288.94
2023-03-05T23:24:58.478Z,99285.41
2023-03-05T23:27:30.188Z,99293.94
2023-03-05T23:30:09.132Z,99287.63
2023-03-05T23:32:39.104Z,99295.38
2023-03-05T23:35:08.093Z,99272.22
2023-03-05T23:37:36.594Z,99277.22
2023-03-05T23:40:06.935Z,99274.50
2023-03-05T23:42:35.684Z,99282.19
2023-03-05T23:45:04.349Z,99278.88
2023-03-05T23:47:32.864Z,99278.06
2023-03-05T23:50:02.818Z,99278.28
2023-03-05T23:52:31.308Z,99274.13
2023-03-05T23:55:00.292Z,99271.63
2023-03-05T23:57:29.666Z,99279.56
2023-03-05T23:59:58.154Z,99273.13
